Time;durP1;ratioP1;P1;durP2;ratioP2;P2;SDS_P1;SDS_P2;PMS_P1;PMS_P2;Temp;Humidity;BMP_temperature;BMP_pressure;BME280_temperature;BME280_humidity;BME280_pressure;Samples;Min_cycle;Max_cycle;Signal;HPM_P1;HPM_P2
2024/01/25 00:01:17;;;;;;;25.65;5.63;;;9.80;99.90;;;;;;4152044;28;20254;-78
2024/01/25 00:03:18;;;;;;;31.85;6.63;;;9.80;99.90;;;;;;4156072;28;20462;-77
2024/01/25 00:05:18;;;;;;;28.52;6.57;;;9.80;99.90;;;;;;4154061;28;20483;-72
2024/01/25 00:07:19;;;;;;;38.65;7.40;;;9.80;99.90;;;;;;4153948;28;20036;-72
2024/01/25 00:09:20;;;;;;;36.22;6.80;;;9.80;99.90;;;;;;4158566;28;20022;-72
2024/01/25 00:11:20;;;;;;;31.67;6.60;;;9.70;99.90;;;;;;4141404;28;20041;-73
2024/01/25 00:13:21;;;;;;;29.02;6.32;;;9.80;99.90;;;;;;4151820;28;20111;-75
2024/01/25 00:15:22;;;;;;;27.60;6.38;;;9.80;99.90;;;;;;4153493;28;20037;-73
2024/01/25 00:17:22;;;;;;;37.55;7.75;;;9.80;99.90;;;;;;4154809;28;20033;-72
2024/01/25 00:19:23;;;;;;;30.98;6.18;;;9.80;99.90;;;;;;4152374;28;21135;-72
2024/01/25 00:21:23;;;;;;;27.80;6.20;;;9.80;99.90;;;;;;4151095;28;20487;-71
2024/01/25 00:23:24;;;;;;;23.35;5.93;;;9.70;99.90;;;;;;4138839;28;20578;-73
2024/01/25 00:25:25;;;;;;;31.98;7.20;;;9.80;99.90;;;;;;4141096;28;20561;-71
2024/01/25 00:27:25;;;;;;;34.30;7.28;;;9.70;99.90;;;;;;4156679;28;20034;-72
2024/01/25 00:29:26;;;;;;;30.92;6.40;;;9.70;99.90;;;;;;4157423;28;20081;-72
2024/01/25 00:31:27;;;;;;;31.20;6.85;;;9.70;99.90;;;;;;4154515;28;20490;-72
2024/01/25 00:33:28;;;;;;;33.60;6.65;;;9.70;99.90;;;;;;4157559;28;20025;-72
2024/01/25 00:35:29;;;;;;;26.70;6.18;;;9.60;99.90;;;;;;4154321;28;20033;-71
2024/01/25 00:37:30;;;;;;;26.05;6.10;;;9.60;99.90;;;;;;4155864;28;20044;-71
2024/01/25 00:39:31;;;;;;;37.35;6.90;;;9.60;99.90;;;;;;4158751;28;20467;-72
2024/01/25 00:41:33;;;;;;;25.48;6.47;;;9.60;99.90;;;;;;4157939;28;20466;-72
2024/01/25 00:43:34;;;;;;;30.60;6.35;;;9.60;99.90;;;;;;4157515;28;20037;-73
2024/01/25 00:45:34;;;;;;;28.38;6.75;;;9.60;99.90;;;;;;4155024;28;21330;-73
2024/01/25 00:47:35;;;;;;;31.55;6.95;;;9.50;99.90;;;;;;4150470;28;20029;-72
2024/01/25 00:49:36;;;;;;;32.15;6.78;;;9.50;99.90;;;;;;4157397;28;20040;-72
2024/01/25 00:51:37;;;;;;;28.98;6.63;;;9.50;99.90;;;;;;4151471;28;20409;-72
2024/01/25 00:53:38;;;;;;;36.60;6.13;;;9.50;99.90;;;;;;4153399;28;20044;-72
2024/01/25 00:55:40;;;;;;;31.55;7.40;;;9.50;99.90;;;;;;4153839;28;20044;-72
2024/01/25 00:57:41;;;;;;;31.13;6.23;;;9.50;99.90;;;;;;4158935;28;20112;-72
2024/01/25 00:59:42;;;;;;;24.33;5.75;;;9.50;99.90;;;;;;4157841;28;20280;-73
2024/01/25 01:01:46;;;;;;;20.95;5.18;;;9.50;99.90;;;;;;4155097;28;20083;-72
2024/01/25 01:03:52;;;;;;;28.90;6.18;;;9.40;99.90;;;;;;4161198;28;20036;-72
2024/01/25 01:05:53;;;;;;;21.48;5.35;;;9.40;99.90;;;;;;4152711;28;20026;-72
2024/01/25 01:07:54;;;;;;;20.65;5.65;;;9.40;99.90;;;;;;4155212;28;20116;-72
2024/01/25 01:09:54;;;;;;;30.52;6.15;;;9.40;99.90;;;;;;4155596;28;20037;-72
2024/01/25 01:11:55;;;;;;;24.55;5.47;;;9.40;99.90;;;;;;4142272;28;20037;-73
2024/01/25 01:13:55;;;;;;;30.75;5.72;;;9.40;99.90;;;;;;4157683;28;20442;-73
2024/01/25 01:15:56;;;;;;;32.38;7.45;;;9.30;99.90;;;;;;4158795;28;20029;-72
2024/01/25 01:17:57;;;;;;;34.30;6.35;;;9.30;99.90;;;;;;4160295;28;20057;-72
2024/01/25 01:19:57;;;;;;;33.58;7.25;;;9.30;99.90;;;;;;4159557;28;20450;-74
2024/01/25 01:21:58;;;;;;;25.67;5.57;;;9.30;99.90;;;;;;4157074;28;20383;-72
2024/01/25 01:23:58;;;;;;;24.85;5.72;;;9.30;99.90;;;;;;4158937;28;20022;-72
2024/01/25 01:25:59;;;;;;;26.25;5.93;;;9.30;99.90;;;;;;4138489;28;20476;-72
2024/01/25 01:27:59;;;;;;;21.38;5.47;;;9.30;99.90;;;;;;4158064;28;20045;-73
2024/01/25 01:30:00;;;;;;;27.88;6.18;;;9.20;99.90;;;;;;4154569;28;20021;-72
2024/01/25 01:32:01;;;;;;;26.27;5.43;;;9.30;99.90;;;;;;4152947;28;20041;-72
2024/01/25 01:34:01;;;;;;;35.97;6.55;;;9.20;99.90;;;;;;4159816;28;20052;-73
2024/01/25 01:36:02;;;;;;;28.83;5.63;;;9.20;99.90;;;;;;4157969;28;20155;-74
2024/01/25 01:38:03;;;;;;;27.77;6.18;;;9.20;99.90;;;;;;4159012;28;20037;-73
2024/01/25 01:40:04;;;;;;;24.25;5.13;;;9.20;99.90;;;;;;4160704;28;20029;-71
2024/01/25 01:42:05;;;;;;;32.03;6.47;;;9.20;99.90;;;;;;4157605;28;20029;-72
2024/01/25 01:44:05;;;;;;;27.60;5.80;;;9.10;99.90;;;;;;4151591;28;20445;-73
2024/01/25 01:46:40;;;;;;;31.85;6.35;;;9.10;99.90;;;;;;4133358;28;20100;-72
2024/01/25 01:48:41;;;;;;;41.45;8.10;;;9.10;99.90;;;;;;4151760;28;20067;-71
2024/01/25 01:50:44;;;;;;;35.78;6.90;;;9.00;99.90;;;;;;4135075;28;20075;-72
2024/01/25 01:52:46;;;;;;;31.80;6.03;;;8.90;99.90;;;;;;4135958;28;20050;-73
2024/01/25 01:54:47;;;;;;;34.60;7.05;;;8.90;99.90;;;;;;4154752;28;20037;-72
2024/01/25 01:56:48;;;;;;;21.08;5.22;;;8.90;99.90;;;;;;4138549;28;20053;-71
2024/01/25 01:58:49;;;;;;;20.92;4.68;;;8.90;99.90;;;;;;4154456;28;20057;-72
2024/01/25 02:00:50;;;;;;;33.05;6.75;;;8.90;99.90;;;;;;4151394;28;20502;-72
2024/01/25 02:02:52;;;;;;;26.55;5.43;;;8.90;99.90;;;;;;4150442;28;20671;-73
2024/01/25 02:04:52;;;;;;;19.65;4.90;;;8.80;99.90;;;;;;4154531;28;20033;-71
2024/01/25 02:06:53;;;;;;;33.35;5.75;;;8.90;99.90;;;;;;4151844;28;20041;-73
2024/01/25 02:08:55;;;;;;;32.42;6.20;;;8.80;99.90;;;;;;4161834;28;20038;-71
2024/01/25 02:10:56;;;;;;;21.58;5.35;;;8.80;99.90;;;;;;4156584;28;20398;-72
2024/01/25 02:12:57;;;;;;;36.53;7.13;;;8.80;99.90;;;;;;4159695;28;20071;-72
2024/01/25 02:14:57;;;;;;;28.65;5.50;;;8.80;99.90;;;;;;4158572;28;20470;-77
2024/01/25 02:16:58;;;;;;;24.20;5.55;;;8.80;99.90;;;;;;4140120;28;20099;-77
2024/01/25 02:18:58;;;;;;;25.02;5.22;;;8.80;99.90;;;;;;4159736;28;20042;-77
2024/01/25 02:20:59;;;;;;;27.77;5.95;;;8.70;99.90;;;;;;4159987;28;20399;-77
2024/01/25 02:23:00;;;;;;;23.92;4.85;;;8.80;99.90;;;;;;4164699;28;20033;-77
2024/01/25 02:25:00;;;;;;;23.23;4.93;;;8.70;99.90;;;;;;4156655;28;20029;-71
2024/01/25 02:27:01;;;;;;;25.55;5.40;;;8.70;99.90;;;;;;4156242;28;20433;-71
2024/01/25 02:29:04;;;;;;;26.35;5.88;;;8.70;99.90;;;;;;4159150;28;20348;-72
2024/01/25 02:31:05;;;;;;;28.65;5.55;;;8.70;99.90;;;;;;4139617;28;20042;-72
2024/01/25 02:33:05;;;;;;;22.77;6.13;;;8.80;99.90;;;;;;4159329;28;20440;-71
2024/01/25 02:35:06;;;;;;;26.90;5.80;;;8.80;99.90;;;;;;4141881;28;20030;-72
2024/01/25 02:37:07;;;;;;;24.70;4.95;;;8.70;99.90;;;;;;4159091;28;20038;-71
2024/01/25 02:39:07;;;;;;;23.63;4.93;;;8.70;99.90;;;;;;4159117;28;21246;-71
2024/01/25 02:41:08;;;;;;;24.40;5.50;;;8.70;99.90;;;;;;4158162;28;20057;-71
2024/01/25 02:43:09;;;;;;;23.17;5.57;;;8.70;99.90;;;;;;4160643;28;20086;-73
2024/01/25 02:45:09;;;;;;;25.17;5.22;;;8.70;99.90;;;;;;4153873;28;20042;-73
2024/01/25 02:47:10;;;;;;;25.77;5.75;;;8.70;99.90;;;;;;4155367;28;20509;-71
2024/01/25 02:49:11;;;;;;;27.88;5.60;;;8.70;99.90;;;;;;4155112;28;20038;-71
2024/01/25 02:51:12;;;;;;;28.83;6.28;;;8.70;99.90;;;;;;4158645;28;20041;-71
2024/01/25 02:53:12;;;;;;;24.52;5.72;;;8.70;99.90;;;;;;4158062;28;20099;-71
2024/01/25 02:55:13;;;;;;;21.40;4.70;;;8.70;99.90;;;;;;4157203;28;20478;-72
2024/01/25 02:57:14;;;;;;;20.75;4.50;;;8.70;99.90;;;;;;4158945;28;20439;-73
2024/01/25 02:59:14;;;;;;;23.70;4.65;;;8.70;99.90;;;;;;4158428;28;20121;-72
2024/01/25 03:01:15;;;;;;;25.02;5.28;;;8.70;99.90;;;;;;4157535;28;20041;-72
2024/01/25 03:03:16;;;;;;;29.63;5.82;;;8.60;99.90;;;;;;4158073;28;20417;-72
2024/01/25 03:05:17;;;;;;;23.65;5.15;;;8.60;99.90;;;;;;4155861;28;20450;-72
2024/01/25 03:07:17;;;;;;;24.48;5.20;;;8.60;99.90;;;;;;4150672;28;20034;-73
2024/01/25 03:09:18;;;;;;;29.67;5.63;;;8.60;99.90;;;;;;4154999;28;20029;-72
2024/01/25 03:11:19;;;;;;;29.55;5.80;;;8.60;99.90;;;;;;4157257;28;20117;-71
2024/01/25 03:13:20;;;;;;;22.65;5.78;;;8.50;99.90;;;;;;4154160;28;20037;-72
2024/01/25 03:15:20;;;;;;;23.52;5.32;;;8.50;99.90;;;;;;4153867;28;20043;-71
2024/01/25 03:17:21;;;;;;;23.20;5.57;;;8.50;99.90;;;;;;4150834;28;20030;-74
2024/01/25 03:19:25;;;;;;;25.10;4.57;;;8.50;99.90;;;;;;4156843;28;20485;-72
2024/01/25 03:21:26;;;;;;;22.83;5.18;;;8.50;99.90;;;;;;4132812;28;20034;-71
2024/01/25 03:23:27;;;;;;;26.70;5.65;;;8.50;99.90;;;;;;4146584;28;20511;-72
2024/01/25 03:25:27;;;;;;;30.35;6.03;;;8.50;99.90;;;;;;4136189;28;20025;-71
2024/01/25 03:27:28;;;;;;;28.55;5.50;;;8.50;99.90;;;;;;4152785;28;20026;-72
2024/01/25 03:29:28;;;;;;;22.67;5.22;;;8.50;99.90;;;;;;4156938;28;20034;-71
2024/01/25 03:31:29;;;;;;;32.78;6.00;;;8.50;99.90;;;;;;4157620;28;20399;-72
2024/01/25 03:33:32;;;;;;;28.98;5.50;;;8.40;99.90;;;;;;4156253;28;20440;-72
2024/01/25 03:35:32;;;;;;;25.52;5.30;;;8.40;99.90;;;;;;4157419;28;20040;-72
2024/01/25 03:37:33;;;;;;;31.83;5.57;;;8.40;99.90;;;;;;4138306;28;20042;-72
2024/01/25 03:39:34;;;;;;;22.27;5.53;;;8.40;99.90;;;;;;4155677;28;20391;-72
2024/01/25 03:41:34;;;;;;;19.33;5.18;;;8.40;99.90;;;;;;4157708;28;20025;-72
2024/01/25 03:43:35;;;;;;;21.27;5.05;;;8.40;99.90;;;;;;4151741;28;20033;-72
2024/01/25 03:45:36;;;;;;;20.42;4.47;;;8.40;99.90;;;;;;4157493;28;21189;-72
2024/01/25 03:47:36;;;;;;;34.15;6.22;;;8.40;99.90;;;;;;4158469;28;20033;-72
2024/01/25 03:49:37;;;;;;;21.38;4.72;;;8.40;99.90;;;;;;4153098;28;20034;-72
2024/01/25 03:51:37;;;;;;;30.92;5.88;;;8.40;99.90;;;;;;4151512;28;20120;-74
2024/01/25 03:53:39;;;;;;;25.20;6.05;;;8.40;99.90;;;;;;4158662;28;20372;-72
2024/01/25 03:55:40;;;;;;;19.23;4.15;;;8.30;99.90;;;;;;4155847;28;20038;-73
2024/01/25 03:57:42;;;;;;;21.20;5.10;;;8.30;99.90;;;;;;4155481;28;20517;-73
2024/01/25 03:59:42;;;;;;;24.90;5.50;;;8.30;99.90;;;;;;4157878;28;20033;-72
2024/01/25 04:01:49;;;;;;;30.67;5.45;;;8.30;99.90;;;;;;4153335;28;20042;-71
2024/01/25 04:03:50;;;;;;;22.40;5.45;;;8.30;99.90;;;;;;4154247;28;20553;-72
2024/01/25 04:05:51;;;;;;;23.80;5.05;;;8.30;99.90;;;;;;4139565;28;20117;-73
2024/01/25 04:07:51;;;;;;;23.05;5.13;;;8.30;99.90;;;;;;4156881;28;20045;-72
2024/01/25 04:09:52;;;;;;;29.23;5.68;;;8.30;99.90;;;;;;4155046;28;20086;-72
2024/01/25 04:11:52;;;;;;;25.70;5.30;;;8.20;99.90;;;;;;4156698;28;20493;-73
2024/01/25 04:13:53;;;;;;;20.27;4.53;;;8.20;99.90;;;;;;4151559;28;20045;-74
2024/01/25 04:15:54;;;;;;;21.48;4.78;;;8.20;99.90;;;;;;4154199;28;20087;-73
2024/01/25 04:17:55;;;;;;;28.83;6.35;;;8.20;99.90;;;;;;4138216;28;20026;-72
2024/01/25 04:19:56;;;;;;;28.07;5.73;;;8.20;99.90;;;;;;4158193;28;20053;-73
2024/01/25 04:21:57;;;;;;;27.33;6.05;;;8.20;99.90;;;;;;4157680;28;20037;-72
2024/01/25 04:23:58;;;;;;;28.90;4.95;;;8.20;99.90;;;;;;4157562;28;20032;-73
2024/01/25 04:25:58;;;;;;;31.48;5.38;;;8.20;99.90;;;;;;4156471;28;20048;-72
2024/01/25 04:28:00;;;;;;;24.98;4.75;;;8.10;99.90;;;;;;4156170;28;20063;-72
2024/01/25 04:30:03;;;;;;;26.60;5.35;;;8.10;99.90;;;;;;4154956;28;20044;-73
2024/01/25 04:32:04;;;;;;;29.00;5.05;;;8.10;99.90;;;;;;4156321;28;20033;-72
2024/01/25 04:34:05;;;;;;;20.80;4.28;;;8.10;99.90;;;;;;4158047;28;20182;-72
2024/01/25 04:36:06;;;;;;;20.40;4.75;;;8.10;99.90;;;;;;4158234;28;20100;-71
2024/01/25 04:38:06;;;;;;;25.77;5.85;;;8.10;99.90;;;;;;4157777;28;20037;-70
2024/01/25 04:40:08;;;;;;;16.48;4.47;;;8.10;99.90;;;;;;4159547;28;20033;-72
2024/01/25 04:42:08;;;;;;;27.15;5.82;;;8.10;99.90;;;;;;4143141;28;20041;-72
2024/01/25 04:44:09;;;;;;;23.08;4.72;;;8.10;99.90;;;;;;4156864;28;20037;-73
2024/01/25 04:46:09;;;;;;;16.58;4.10;;;8.10;99.90;;;;;;4154728;28;20408;-76
2024/01/25 04:48:10;;;;;;;22.00;4.55;;;8.10;99.90;;;;;;4155635;28;20364;-76
2024/01/25 04:50:11;;;;;;;16.45;4.30;;;8.10;99.90;;;;;;4160083;28;20044;-76
2024/01/25 04:52:11;;;;;;;17.90;3.97;;;8.20;99.90;;;;;;4160464;28;20042;-74
2024/01/25 04:54:15;;;;;;;29.15;5.47;;;8.20;99.90;;;;;;4143847;28;20100;-73
2024/01/25 04:56:15;;;;;;;24.00;4.97;;;8.20;99.90;;;;;;4160418;28;20507;-72
2024/01/25 04:58:16;;;;;;;20.02;4.28;;;8.10;99.90;;;;;;4139769;28;20048;-71
2024/01/25 05:00:17;;;;;;;22.80;4.70;;;8.10;99.90;;;;;;4158303;28;20449;-73
2024/01/25 05:02:17;;;;;;;21.98;4.10;;;8.10;99.90;;;;;;4159657;28;20052;-71
2024/01/25 05:04:21;;;;;;;19.30;4.85;;;8.10;99.90;;;;;;4159262;28;20383;-76
2024/01/25 05:06:21;;;;;;;23.77;5.03;;;8.10;99.90;;;;;;4137739;28;20112;-76
2024/01/25 05:08:22;;;;;;;19.50;4.75;;;8.10;99.90;;;;;;4155983;28;20067;-76
2024/01/25 05:10:23;;;;;;;16.15;3.90;;;8.10;99.90;;;;;;4156929;28;20641;-77
2024/01/25 05:12:23;;;;;;;16.92;4.15;;;8.10;99.90;;;;;;4159297;28;20483;-77
2024/01/25 05:14:25;;;;;;;21.25;4.68;;;8.10;99.90;;;;;;4161273;28;20475;-76
2024/01/25 05:16:26;;;;;;;23.80;4.37;;;8.10;99.90;;;;;;4156329;28;20116;-76
2024/01/25 05:18:26;;;;;;;16.92;4.50;;;8.10;99.90;;;;;;4158174;28;20396;-77
2024/01/25 05:20:32;;;;;;;12.88;4.40;;;8.00;99.90;;;;;;4143247;28;20563;-77
2024/01/25 05:22:39;;;;;;;18.60;4.38;;;8.10;99.90;;;;;;4157092;28;20041;-77
2024/01/25 05:24:40;;;;;;;19.45;4.32;;;8.00;99.90;;;;;;4161077;28;20061;-78
2024/01/25 05:26:41;;;;;;;22.08;4.82;;;8.00;99.90;;;;;;4142357;28;20034;-76
2024/01/25 05:28:41;;;;;;;18.65;5.25;;;8.00;99.90;;;;;;4157805;28;20578;-77
2024/01/25 05:30:42;;;;;;;15.10;4.72;;;7.90;99.90;;;;;;4157958;28;20437;-76
2024/01/25 05:32:42;;;;;;;23.88;5.40;;;7.90;99.90;;;;;;4141957;28;20376;-76
2024/01/25 05:34:43;;;;;;;20.40;5.28;;;7.90;99.90;;;;;;4158518;28;20116;-76
2024/01/25 05:36:43;;;;;;;21.48;5.75;;;7.90;99.90;;;;;;4158337;28;20049;-76
2024/01/25 05:38:44;;;;;;;25.38;6.40;;;7.80;99.90;;;;;;4158742;28;20045;-76
2024/01/25 05:40:44;;;;;;;24.13;5.43;;;7.80;99.90;;;;;;4155919;28;20060;-76
2024/01/25 05:42:45;;;;;;;20.27;5.15;;;7.80;99.90;;;;;;4158004;28;20037;-76
2024/01/25 05:44:46;;;;;;;20.70;5.25;;;7.80;99.90;;;;;;4160251;28;20029;-78
2024/01/25 05:46:46;;;;;;;20.40;5.15;;;7.70;99.90;;;;;;4155608;28;20034;-75
2024/01/25 05:48:47;;;;;;;20.23;5.15;;;7.80;99.90;;;;;;4122796;28;20033;-76
2024/01/25 05:50:48;;;;;;;24.80;5.25;;;7.70;99.90;;;;;;4156318;28;20135;-78
2024/01/25 05:52:48;;;;;;;23.38;5.15;;;7.70;99.90;;;;;;4156625;28;20045;-78
2024/01/25 05:54:50;;;;;;;19.30;4.88;;;7.70;99.90;;;;;;4160047;28;20118;-77
2024/01/25 05:56:50;;;;;;;19.63;4.50;;;7.70;99.90;;;;;;4134907;28;20037;-78
2024/01/25 05:58:51;;;;;;;24.63;5.70;;;7.70;99.90;;;;;;4155937;28;20505;-75
2024/01/25 06:00:51;;;;;;;20.77;5.00;;;7.70;99.90;;;;;;4154228;28;20403;-75
2024/01/25 06:02:52;;;;;;;18.40;4.32;;;7.70;99.90;;;;;;4159942;28;20083;-77
2024/01/25 06:04:52;;;;;;;20.98;5.35;;;7.70;99.90;;;;;;4159262;28;20417;-78
2024/01/25 06:06:53;;;;;;;22.77;5.03;;;7.60;99.90;;;;;;4141178;28;20384;-77
2024/01/25 06:08:54;;;;;;;26.65;4.88;;;7.60;99.90;;;;;;4157578;28;20450;-75
2024/01/25 06:10:55;;;;;;;25.58;5.65;;;7.60;99.90;;;;;;4158813;28;20107;-78
2024/01/25 06:12:55;;;;;;;26.30;5.55;;;7.60;99.90;;;;;;4157640;28;20073;-75
2024/01/25 06:14:56;;;;;;;19.27;4.50;;;7.60;99.90;;;;;;4157606;28;20036;-77
2024/01/25 06:16:56;;;;;;;18.90;4.78;;;7.60;99.90;;;;;;4152530;28;20045;-78
2024/01/25 06:18:58;;;;;;;20.42;5.32;;;7.50;99.90;;;;;;4159061;28;20037;-79
2024/01/25 06:20:59;;;;;;;16.90;4.10;;;7.50;99.90;;;;;;4156293;28;20087;-75
2024/01/25 06:22:59;;;;;;;21.45;4.85;;;7.50;99.90;;;;;;4153180;28;20137;-77
2024/01/25 06:25:00;;;;;;;23.73;5.20;;;7.50;99.90;;;;;;4155589;28;20121;-72
2024/01/25 06:27:00;;;;;;;18.23;4.85;;;7.50;99.90;;;;;;4153858;28;20041;-73
2024/01/25 06:29:01;;;;;;;22.40;4.75;;;7.50;99.90;;;;;;4139975;28;20551;-72
2024/01/25 06:31:02;;;;;;;19.88;5.10;;;7.50;99.90;;;;;;4159779;28;20452;-71
2024/01/25 06:33:03;;;;;;;22.40;5.22;;;7.50;99.90;;;;;;4138707;28;20411;-72
2024/01/25 06:35:04;;;;;;;26.00;5.35;;;7.50;99.90;;;;;;4157105;28;20494;-73
2024/01/25 06:37:04;;;;;;;26.45;5.70;;;7.50;99.90;;;;;;4135125;28;20042;-72
2024/01/25 06:39:05;;;;;;;24.20;4.88;;;7.40;99.90;;;;;;4154353;28;20032;-71
2024/01/25 06:41:06;;;;;;;27.73;5.82;;;7.50;99.90;;;;;;4157205;28;20404;-71
2024/01/25 06:43:07;;;;;;;24.05;4.43;;;7.40;99.90;;;;;;4143692;28;20072;-72
2024/01/25 06:45:09;;;;;;;19.75;5.05;;;7.40;99.90;;;;;;4153167;28;20025;-71
2024/01/25 06:47:10;;;;;;;14.27;4.00;;;7.40;99.90;;;;;;4155995;28;20128;-72
2024/01/25 06:49:10;;;;;;;16.98;4.57;;;7.40;99.90;;;;;;4156787;28;20096;-71
2024/01/25 06:51:11;;;;;;;26.15;4.93;;;7.40;99.90;;;;;;4155441;28;20056;-72
2024/01/25 06:53:11;;;;;;;23.05;5.18;;;7.40;99.90;;;;;;4157177;28;20029;-71
2024/01/25 06:55:12;;;;;;;21.65;4.80;;;7.30;99.90;;;;;;4154755;28;20483;-72
2024/01/25 06:57:14;;;;;;;22.63;4.60;;;7.30;99.90;;;;;;4152072;28;20503;-72
2024/01/25 06:59:15;;;;;;;;;;;7.30;99.90;;;;;;4159270;28;20636;-72
2024/01/25 07:01:22;;;;;;;24.33;5.15;;;7.30;99.90;;;;;;4136246;28;19921;-72
2024/01/25 07:03:23;;;;;;;16.35;4.70;;;7.30;99.90;;;;;;4139990;28;20033;-72
2024/01/25 07:05:24;;;;;;;20.60;4.85;;;7.30;99.90;;;;;;4156612;28;20068;-71
2024/01/25 07:07:24;;;;;;;21.55;5.28;;;7.30;99.90;;;;;;4138270;28;20121;-74
2024/01/25 07:09:25;;;;;;;25.05;4.93;;;7.20;99.90;;;;;;4158692;28;20057;-72
2024/01/25 07:11:26;;;;;;;21.83;4.80;;;7.20;99.90;;;;;;4157144;28;20044;-71
2024/01/25 07:13:27;;;;;;;15.82;4.05;;;7.20;99.90;;;;;;4156045;28;20033;-71
2024/01/25 07:15:27;;;;;;;18.75;4.57;;;7.20;99.90;;;;;;4154180;28;20117;-72
2024/01/25 07:17:28;;;;;;;22.52;5.50;;;7.20;99.90;;;;;;4154061;28;20095;-74
2024/01/25 07:19:28;;;;;;;16.45;4.32;;;7.20;99.90;;;;;;4156517;28;20484;-73
2024/01/25 07:21:32;;;;;;;18.80;5.57;;;7.20;99.90;;;;;;4156023;28;20399;-72
2024/01/25 07:23:33;;;;;;;13.07;3.85;;;7.20;99.90;;;;;;4156503;28;20045;-72
2024/01/25 07:25:34;;;;;;;18.30;4.80;;;7.20;99.90;;;;;;4154801;28;20096;-74
2024/01/25 07:27:34;;;;;;;20.50;5.15;;;7.20;99.90;;;;;;4156573;28;20037;-73
2024/01/25 07:29:35;;;;;;;15.88;4.18;;;7.20;99.90;;;;;;4153454;28;20033;-73
2024/01/25 07:31:36;;;;;;;19.20;5.07;;;7.20;99.90;;;;;;4152601;28;20032;-72
2024/01/25 07:33:36;;;;;;;18.73;4.88;;;7.20;99.90;;;;;;4141843;28;20034;-74
2024/01/25 07:35:37;;;;;;;25.77;5.63;;;7.20;99.90;;;;;;4152887;28;20033;-73
2024/01/25 07:37:41;;;;;;;22.30;5.75;;;7.20;99.90;;;;;;4139666;28;20700;-74
2024/01/25 07:39:42;;;;;;;24.50;5.68;;;7.20;99.90;;;;;;4155627;28;20032;-73
2024/01/25 07:41:42;;;;;;;20.42;5.07;;;7.20;99.90;;;;;;4139904;28;20112;-73
2024/01/25 07:43:43;;;;;;;21.15;5.03;;;7.20;99.90;;;;;;4159592;28;20033;-78
2024/01/25 07:45:43;;;;;;;20.80;5.45;;;7.30;99.90;;;;;;4155226;28;20045;-73
2024/01/25 07:47:44;;;;;;;20.95;5.07;;;7.30;99.90;;;;;;4152907;28;25346;-73
2024/01/25 07:49:45;;;;;;;17.83;5.18;;;7.20;99.90;;;;;;4139724;28;20052;-75
2024/01/25 07:51:46;;;;;;;24.45;5.72;;;7.20;99.90;;;;;;4155371;28;20037;-74
2024/01/25 07:53:47;;;;;;;21.95;5.47;;;7.20;99.90;;;;;;4133557;28;20041;-74
2024/01/25 07:55:48;;;;;;;19.92;4.20;;;7.20;99.90;;;;;;4155786;28;20402;-74
2024/01/25 07:57:48;;;;;;;25.50;5.82;;;7.20;99.90;;;;;;4151657;28;20041;-74
2024/01/25 07:59:49;;;;;;;19.60;4.70;;;7.20;99.90;;;;;;4154525;28;20119;-73
2024/01/25 08:01:49;;;;;;;17.52;4.38;;;7.20;99.90;;;;;;4152220;28;20092;-74
2024/01/25 08:03:50;;;;;;;23.88;5.47;;;7.30;99.90;;;;;;4152483;28;20022;-74
2024/01/25 08:05:51;;;;;;;24.50;5.70;;;7.30;99.90;;;;;;4138753;28;20554;-76
2024/01/25 08:07:51;;;;;;;26.42;5.07;;;7.30;99.90;;;;;;4151561;28;20045;-76
2024/01/25 08:09:53;;;;;;;25.67;6.07;;;7.30;99.90;;;;;;4152679;28;20040;-75
2024/01/25 08:11:53;;;;;;;23.27;4.82;;;7.40;99.90;;;;;;4151572;28;20498;-75
2024/01/25 08:13:54;;;;;;;25.88;5.75;;;7.30;99.90;;;;;;4136007;28;20105;-75
2024/01/25 08:15:56;;;;;;;16.25;4.95;;;7.40;99.90;;;;;;4133219;28;20026;-77
2024/01/25 08:17:57;;;;;;;17.52;4.60;;;7.50;99.90;;;;;;4149709;28;20087;-75
2024/01/25 08:19:58;;;;;;;22.98;5.18;;;7.50;99.90;;;;;;4150306;28;20049;-74
2024/01/25 08:21:58;;;;;;;20.42;5.10;;;7.50;99.90;;;;;;4151996;28;20479;-75
2024/01/25 08:23:59;;;;;;;28.85;6.25;;;7.50;99.90;;;;;;4120082;28;20570;-75
2024/01/25 08:25:59;;;;;;;24.10;5.63;;;7.50;99.90;;;;;;4157453;28;20524;-77
2024/01/25 08:28:00;;;;;;;18.38;4.90;;;7.60;99.90;;;;;;4134741;28;20049;-77
2024/01/25 08:30:01;;;;;;;30.13;6.13;;;7.60;99.90;;;;;;4156099;28;20026;-77
2024/01/25 08:32:01;;;;;;;26.08;5.15;;;7.60;99.90;;;;;;4154884;28;20040;-77
2024/01/25 08:34:02;;;;;;;20.17;5.25;;;7.60;99.90;;;;;;4138421;28;20778;-77
2024/01/25 08:36:03;;;;;;;21.83;5.43;;;7.60;99.90;;;;;;4137716;28;20053;-78
2024/01/25 08:38:03;;;;;;;24.67;6.50;;;7.70;99.90;;;;;;4135942;28;20140;-78
2024/01/25 08:40:06;;;;;;;23.27;5.75;;;7.70;99.90;;;;;;4153908;28;20060;-77
2024/01/25 08:42:06;;;;;;;25.35;6.05;;;7.70;99.90;;;;;;4153972;28;20029;-77
2024/01/25 08:44:07;;;;;;;25.92;6.82;;;7.70;99.90;;;;;;4154813;28;20099;-78
2024/01/25 08:46:08;;;;;;;17.48;5.38;;;7.70;99.90;;;;;;4153023;28;20572;-77
2024/01/25 08:48:09;;;;;;;18.10;4.85;;;7.80;99.90;;;;;;4153691;28;20029;-77
2024/01/25 08:50:11;;;;;;;20.33;5.60;;;7.80;99.90;;;;;;4154525;28;20457;-77
2024/01/25 08:52:12;;;;;;;18.83;5.30;;;7.80;99.90;;;;;;4129290;28;20045;-78
2024/01/25 08:54:12;;;;;;;21.63;6.10;;;7.80;99.90;;;;;;4155123;28;20042;-78
2024/01/25 08:56:13;;;;;;;17.80;5.55;;;7.80;99.90;;;;;;4136116;28;20061;-77
2024/01/25 08:58:13;;;;;;;27.48;6.40;;;7.90;99.90;;;;;;4136825;28;20376;-77
2024/01/25 09:00:15;;;;;;;19.15;5.50;;;7.90;99.90;;;;;;4139545;28;20441;-77
2024/01/25 09:02:15;;;;;;;23.40;5.90;;;7.90;99.90;;;;;;4155824;28;20021;-77
2024/01/25 09:04:16;;;;;;;31.00;6.28;;;7.90;99.90;;;;;;4154942;28;20815;-77
2024/01/25 09:06:17;;;;;;;38.30;9.35;;;7.90;99.90;;;;;;4154220;28;20033;-78
2024/01/25 09:08:17;;;;;;;22.00;6.35;;;7.90;99.90;;;;;;4154200;28;20045;-78
2024/01/25 09:10:18;;;;;;;30.98;7.97;;;7.90;99.90;;;;;;4151918;28;20402;-78
2024/01/25 09:12:19;;;;;;;27.00;7.15;;;7.90;99.90;;;;;;4141259;28;20034;-77
2024/01/25 09:14:21;;;;;;;28.75;8.65;;;7.90;99.90;;;;;;4154348;28;20527;-77
2024/01/25 09:16:22;;;;;;;33.83;8.48;;;7.80;99.90;;;;;;4153319;28;20041;-78
2024/01/25 09:18:22;;;;;;;31.50;8.73;;;7.90;99.90;;;;;;4155626;28;20029;-78
2024/01/25 09:20:23;;;;;;;28.02;7.38;;;7.90;99.90;;;;;;4156309;28;20490;-78
2024/01/25 09:22:24;;;;;;;31.23;9.05;;;7.90;99.90;;;;;;4155261;28;20037;-77
2024/01/25 09:24:24;;;;;;;37.70;10.45;;;7.90;99.90;;;;;;4158123;28;20494;-78
2024/01/25 09:26:25;;;;;;;36.53;10.20;;;7.80;99.90;;;;;;4155586;28;20080;-77
2024/01/25 09:28:26;;;;;;;28.33;8.82;;;7.70;99.90;;;;;;4136895;28;20070;-77
2024/01/25 09:30:26;;;;;;;31.58;10.45;;;7.70;99.90;;;;;;4156892;28;20392;-76
2024/01/25 09:32:27;;;;;;;31.67;9.13;;;7.70;99.90;;;;;;4158445;28;20721;-76
2024/01/25 09:34:28;;;;;;;35.50;10.32;;;7.70;99.90;;;;;;4156398;28;20045;-77
2024/01/25 09:36:28;;;;;;;29.63;10.20;;;7.70;99.90;;;;;;4157276;28;20132;-77
2024/01/25 09:38:29;;;;;;;30.30;10.75;;;7.70;99.90;;;;;;4156309;28;20033;-76
2024/01/25 09:40:30;;;;;;;35.28;10.50;;;7.70;99.90;;;;;;4155983;28;20088;-77
2024/01/25 09:42:31;;;;;;;29.55;9.90;;;7.70;99.90;;;;;;4138290;28;20093;-77
2024/01/25 09:44:31;;;;;;;33.95;11.30;;;7.80;99.90;;;;;;4158112;28;20384;-76
2024/01/25 09:46:32;;;;;;;37.47;10.85;;;7.80;99.90;;;;;;4156762;28;20035;-77
2024/01/25 09:48:33;;;;;;;26.58;9.95;;;7.80;99.90;;;;;;4155628;28;20034;-76
2024/01/25 09:50:34;;;;;;;32.63;10.55;;;7.90;99.90;;;;;;4139668;28;20052;-77
2024/01/25 09:52:35;;;;;;;29.05;10.52;;;7.80;99.90;;;;;;4157840;28;20124;-76
2024/01/25 09:54:36;;;;;;;30.73;10.18;;;7.80;99.90;;;;;;4157306;28;20316;-76
2024/01/25 09:56:38;;;;;;;30.73;10.18;;;7.80;99.90;;;;;;4156237;28;20493;-76
2024/01/25 09:58:44;;;;;;;27.63;10.30;;;7.80;99.90;;;;;;4138444;28;20054;-77
2024/01/25 10:00:44;;;;;;;31.38;11.63;;;7.90;99.90;;;;;;4155173;28;20033;-76
2024/01/25 10:02:48;;;;;;;36.63;11.70;;;7.90;99.90;;;;;;4155312;28;20514;-77
2024/01/25 10:04:52;;;;;;;20.35;9.00;;;7.90;99.90;;;;;;4155678;28;20132;-76
2024/01/25 10:06:57;;;;;;;28.33;10.60;;;8.00;99.90;;;;;;4155787;28;20034;-76
2024/01/25 10:08:59;;;;;;;34.25;11.57;;;8.00;99.90;;;;;;4137626;28;20556;-76
2024/01/25 10:10:59;;;;;;;28.15;10.90;;;8.00;99.90;;;;;;4153914;28;20068;-76
2024/01/25 10:13:00;;;;;;;29.42;10.60;;;8.00;99.90;;;;;;4141930;28;20041;-77
2024/01/25 10:15:01;;;;;;;30.08;11.90;;;8.00;99.90;;;;;;4157333;28;20541;-77
2024/01/25 10:17:02;;;;;;;23.08;10.55;;;8.10;99.90;;;;;;4154008;28;20033;-77
2024/01/25 10:19:09;;;;;;;28.05;10.40;;;8.10;99.90;;;;;;4142528;28;20117;-77
2024/01/25 10:21:10;;;;;;;24.35;10.60;;;8.20;99.90;;;;;;4156104;28;20068;-77
2024/01/25 10:23:11;;;;;;;29.42;10.85;;;8.20;99.90;;;;;;4155336;28;20038;-77
2024/01/25 10:25:14;;;;;;;32.55;12.05;;;8.20;99.90;;;;;;4156255;28;20045;-73
2024/01/25 10:27:16;;;;;;;31.63;12.30;;;8.20;99.90;;;;;;4151988;28;20384;-74
2024/01/25 10:29:16;;;;;;;29.15;11.18;;;8.30;99.90;;;;;;4151812;28;20618;-74